sensor_id;sensor_type;location;lat;lon;timestamp;pressure;altitude;pressure_sealevel;temperature;humidity
75650;BME280;64245;51.282;22.494;2023-07-02T00:01:47;98035.59;;;16.18;100.00
75650;BME280;64245;51.282;22.494;2023-07-02T00:04:14;98026.41;;;16.12;100.00
75650;BME280;64245;51.282;22.494;2023-07-02T00:06:45;98018.72;;;15.96;100.00
75650;BME280;64245;51.282;22.494;2023-07-02T00:09:12;98014.72;;;15.92;100.00
75650;BME280;64245;51.282;22.494;2023-07-02T00:11:38;98012.63;;;15.87;100.00
75650;BME280;64245;51.282;22.494;2023-07-02T00:14:08;98014.09;;;15.90;100.00
75650;BME280;64245;51.282;22.494;2023-07-02T00:16:39;98015.34;;;15.87;100.00
75650;BME280;64245;51.282;22.494;2023-07-02T00:19:05;98009.09;;;15.80;100.00
75650;BME280;64245;51.282;22.494;2023-07-02T00:21:31;97996.16;;;15.76;100.00
75650;BME280;64245;51.282;22.494;2023-07-02T00:23:59;98009.28;;;15.85;100.00
75650;BME280;64245;51.282;22.494;2023-07-02T00:26:29;98006.19;;;15.75;100.00
75650;BME280;64245;51.282;22.494;2023-07-02T00:28:55;98006.59;;;15.72;100.00
75650;BME280;64245;51.282;22.494;2023-07-02T00:31:22;97993.00;;;15.66;100.00
75650;BME280;64245;51.282;22.494;2023-07-02T00:33:48;97998.66;;;15.64;100.00
75650;BME280;64245;51.282;22.494;2023-07-02T00:36:14;98004.50;;;15.68;100.00
75650;BME280;64245;51.282;22.494;2023-07-02T00:38:47;97995.31;;;15.56;100.00
75650;BME280;64245;51.282;22.494;2023-07-02T00:41:14;97997.56;;;15.52;100.00
75650;BME280;64245;51.282;22.494;2023-07-02T00:43:39;97992.34;;;15.37;100.00
75650;BME280;64245;51.282;22.494;2023-07-02T00:46:19;98003.41;;;15.49;100.00
75650;BME280;64245;51.282;22.494;2023-07-02T00:48:50;98000.28;;;15.45;100.00
75650;BME280;64245;51.282;22.494;2023-07-02T00:51:18;98004.25;;;15.49;100.00
75650;BME280;64245;51.282;22.494;2023-07-02T00:53:44;97995.69;;;15.39;100.00
75650;BME280;64245;51.282;22.494;2023-07-02T00:56:11;97996.50;;;15.40;100.00
75650;BME280;64245;51.282;22.494;2023-07-02T00:58:39;97996.72;;;15.38;100.00
75650;BME280;64245;51.282;22.494;2023-07-02T15:15:36;98060.53;;;26.35;52.50
75650;BME280;64245;51.282;22.494;2023-07-02T15:18:03;98051.59;;;27.09;49.17
75650;BME280;64245;51.282;22.494;2023-07-02T15:20:28;98062.41;;;28.48;46.81
75650;BME280;64245;51.282;22.494;2023-07-02T15:22:54;98053.59;;;26.63;51.65
75650;BME280;64245;51.282;22.494;2023-07-02T15:25:21;98069.91;;;25.31;53.98
75650;BME280;64245;51.282;22.494;2023-07-02T15:27:47;98058.88;;;25.31;54.21
75650;BME280;64245;51.282;22.494;2023-07-02T15:30:13;98065.09;;;25.01;55.07
75650;BME280;64245;51.282;22.494;2023-07-02T15:32:39;98073.50;;;24.42;57.60
75650;BME280;64245;51.282;22.494;2023-07-02T15:35:05;98099.66;;;23.91;60.92
75650;BME280;64245;51.282;22.494;2023-07-02T15:37:31;98104.78;;;22.95;62.00
75650;BME280;64245;51.282;22.494;2023-07-02T15:39:56;98101.75;;;22.42;62.62
75650;BME280;64245;51.282;22.494;2023-07-02T15:42:22;98110.22;;;22.23;64.67
75650;BME280;64245;51.282;22.494;2023-07-02T15:44:53;98106.63;;;21.94;67.21
75650;BME280;64245;51.282;22.494;2023-07-02T15:47:19;98117.91;;;21.81;69.11
75650;BME280;64245;51.282;22.494;2023-07-02T15:49:44;98107.41;;;21.90;69.24
75650;BME280;64245;51.282;22.494;2023-07-02T15:52:10;98104.06;;;21.59;69.22
75650;BME280;64245;51.282;22.494;2023-07-02T15:54:36;98103.09;;;21.65;69.67
75650;BME280;64245;51.282;22.494;2023-07-02T15:57:02;98108.84;;;21.81;70.22
75650;BME280;64245;51.282;22.494;2023-07-02T15:59:28;98107.50;;;21.66;67.81
75650;BME280;64245;51.282;22.494;2023-07-02T16:01:53;98111.56;;;21.64;69.06
75650;BME280;64245;51.282;22.494;2023-07-02T16:04:19;98110.53;;;21.53;66.81
75650;BME280;64245;51.282;22.494;2023-07-02T16:06:45;98109.34;;;21.49;66.72
75650;BME280;64245;51.282;22.494;2023-07-02T16:09:10;98101.75;;;21.40;66.64
75650;BME280;64245;51.282;22.494;2023-07-02T16:11:37;98103.69;;;21.27;67.53
75650;BME280;64245;51.282;22.494;2023-07-02T16:14:08;98110.13;;;21.10;68.96
75650;BME280;64245;51.282;22.494;2023-07-02T16:16:40;98110.59;;;21.07;67.00
75650;BME280;64245;51.282;22.494;2023-07-02T16:19:07;98103.03;;;20.97;66.97
75650;BME280;64245;51.282;22.494;2023-07-02T16:21:34;98110.63;;;20.83;67.81
75650;BME280;64245;51.282;22.494;2023-07-02T16:24:00;98109.91;;;20.88;67.66
75650;BME280;64245;51.282;22.494;2023-07-02T16:26:26;98107.81;;;20.78;67.34
75650;BME280;64245;51.282;22.494;2023-07-02T16:28:52;98113.97;;;20.74;66.92
75650;BME280;64245;51.282;22.494;2023-07-02T16:31:18;98114.69;;;20.69;69.53
75650;BME280;64245;51.282;22.494;2023-07-02T16:33:43;98117.66;;;20.56;69.07
75650;BME280;64245;51.282;22.494;2023-07-02T16:36:12;98121.56;;;20.37;71.40
75650;BME280;64245;51.282;22.494;2023-07-02T16:38:40;98125.44;;;20.29;71.47
75650;BME280;64245;51.282;22.494;2023-07-02T16:41:06;98131.59;;;20.24;72.96
75650;BME280;64245;51.282;22.494;2023-07-02T16:43:32;98129.19;;;20.05;75.07
75650;BME280;64245;51.282;22.494;2023-07-02T16:45:58;98134.31;;;20.01;73.56
75650;BME280;64245;51.282;22.494;2023-07-02T16:48:24;98128.72;;;20.08;69.92
75650;BME280;64245;51.282;22.494;2023-07-02T16:50:58;98138.13;;;20.23;70.29
75650;BME280;64245;51.282;22.494;2023-07-02T16:53:23;98133.72;;;20.11;72.34
75650;BME280;64245;51.282;22.494;2023-07-02T16:55:49;98133.41;;;20.19;73.58
75650;BME280;64245;51.282;22.494;2023-07-02T16:58:15;98133.88;;;20.27;73.00
75650;BME280;64245;51.282;22.494;2023-07-02T17:00:40;98134.25;;;20.31;73.53
75650;BME280;64245;51.282;22.494;2023-07-02T17:03:09;98151.28;;;20.45;72.67
75650;BME280;64245;51.282;22.494;2023-07-02T17:05:35;98156.66;;;20.63;74.03
75650;BME280;64245;51.282;22.494;2023-07-02T17:08:01;98150.84;;;20.71;72.92
75650;BME280;64245;51.282;22.494;2023-07-02T17:10:26;98153.00;;;20.69;76.98
75650;BME280;64245;51.282;22.494;2023-07-02T17:12:52;98158.81;;;20.73;75.31
75650;BME280;64245;51.282;22.494;2023-07-02T17:15:18;98161.44;;;20.67;72.45
75650;BME280;64245;51.282;22.494;2023-07-02T17:17:44;98170.47;;;20.80;74.72
75650;BME280;64245;51.282;22.494;2023-07-02T17:20:10;98180.25;;;20.76;78.35
75650;BME280;64245;51.282;22.494;2023-07-02T17:22:35;98183.59;;;20.78;75.26
75650;BME280;64245;51.282;22.494;2023-07-02T17:25:01;98182.63;;;20.72;77.57
75650;BME280;64245;51.282;22.494;2023-07-02T17:27:29;98189.88;;;20.66;78.78
75650;BME280;64245;51.282;22.494;2023-07-02T17:30:01;98179.75;;;20.55;79.15
75650;BME280;64245;51.282;22.494;2023-07-02T17:32:28;98178.03;;;20.43;78.41
75650;BME280;64245;51.282;22.494;2023-07-02T17:34:54;98190.47;;;20.57;75.13
75650;BME280;64245;51.282;22.494;2023-07-02T17:37:20;98197.69;;;20.51;74.89
75650;BME280;64245;51.282;22.494;2023-07-02T17:39:46;98173.13;;;20.33;75.40
75650;BME280;64245;51.282;22.494;2023-07-02T17:42:13;98192.47;;;20.20;78.80
75650;BME280;64245;51.282;22.494;2023-07-02T17:44:41;98175.75;;;19.98;80.08
75650;BME280;64245;51.282;22.494;2023-07-02T17:47:10;98189.81;;;19.83;78.18
75650;BME280;64245;51.282;22.494;2023-07-02T17:49:38;98200.00;;;19.76;78.80
75650;BME280;64245;51.282;22.494;2023-07-02T17:52:06;98199.19;;;19.57;80.04
75650;BME280;64245;51.282;22.494;2023-07-02T17:54:36;98204.81;;;19.62;79.87
75650;BME280;64245;51.282;22.494;2023-07-02T17:57:03;98204.66;;;19.57;81.71
75650;BME280;64245;51.282;22.494;2023-07-02T17:59:30;98205.78;;;19.50;81.47
75650;BME280;64245;51.282;22.494;2023-07-02T18:01:56;98213.94;;;19.31;83.81
75650;BME280;64245;51.282;22.494;2023-07-02T18:04:22;98207.19;;;19.16;83.47
75650;BME280;64245;51.282;22.494;2023-07-02T18:06:56;98200.69;;;19.17;83.45
75650;BME280;64245;51.282;22.494;2023-07-02T18:09:24;98214.78;;;19.14;84.30
75650;BME280;64245;51.282;22.494;2023-07-02T18:11:50;98207.94;;;19.05;84.62
75650;BME280;64245;51.282;22.494;2023-07-02T18:14:20;98216.28;;;19.10;83.92
75650;BME280;64245;51.282;22.494;2023-07-02T18:16:48;98210.72;;;18.98;83.79
75650;BME280;64245;51.282;22.494;2023-07-02T18:19:15;98216.84;;;18.93;85.69
75650;BME280;64245;51.282;22.494;2023-07-02T18:21:40;98220.41;;;18.94;85.65
75650;BME280;64245;51.282;22.494;2023-07-02T18:24:06;98223.59;;;18.91;85.11
75650;BME280;64245;51.282;22.494;2023-07-02T18:26:32;98232.31;;;18.81;87.11
75650;BME280;64245;51.282;22.494;2023-07-02T18:28:57;98228.59;;;18.69;86.80
75650;BME280;64245;51.282;22.494;2023-07-02T18:31:25;98230.06;;;18.72;86.46
75650;BME280;64245;51.282;22.494;2023-07-02T18:33:51;98232.34;;;18.75;85.98
75650;BME280;64245;51.282;22.494;2023-07-02T18:36:16;98232.56;;;18.73;87.02
75650;BME280;64245;51.282;22.494;2023-07-02T18:38:42;98245.25;;;18.61;87.75
75650;BME280;64245;51.282;22.494;2023-07-02T18:41:09;98241.09;;;18.52;88.84
75650;BME280;64245;51.282;22.494;2023-07-02T18:43:36;98248.81;;;18.55;88.64
75650;BME280;64245;51.282;22.494;2023-07-02T18:46:05;98253.84;;;18.58;88.21
75650;BME280;64245;51.282;22.494;2023-07-02T18:48:31;98258.91;;;18.61;87.48
75650;BME280;64245;51.282;22.494;2023-07-02T18:50:57;98272.94;;;18.58;89.31
75650;BME280;64245;51.282;22.494;2023-07-02T18:53:24;98273.66;;;18.47;88.78
75650;BME280;64245;51.282;22.494;2023-07-02T18:56:03;98275.75;;;18.45;89.99
75650;BME280;64245;51.282;22.494;2023-07-02T18:58:30;98283.88;;;18.51;88.42
75650;BME280;64245;51.282;22.494;2023-07-02T19:00:55;98275.75;;;18.45;91.12
75650;BME280;64245;51.282;22.494;2023-07-02T19:03:21;98289.44;;;18.38;92.13
75650;BME280;64245;51.282;22.494;2023-07-02T19:05:48;98285.75;;;18.19;91.21
75650;BME280;64245;51.282;22.494;2023-07-02T19:08:16;98288.69;;;18.18;91.19
75650;BME280;64245;51.282;22.494;2023-07-02T19:10:42;98287.84;;;18.17;92.27
75650;BME280;64245;51.282;22.494;2023-07-02T19:13:10;98303.63;;;18.09;93.30
75650;BME280;64245;51.282;22.494;2023-07-02T19:15:35;98321.91;;;17.95;94.26
75650;BME280;64245;51.282;22.494;2023-07-02T19:18:01;98319.66;;;17.85;94.76
75650;BME280;64245;51.282;22.494;2023-07-02T19:20:28;98319.66;;;17.72;95.55
75650;BME280;64245;51.282;22.494;2023-07-02T19:22:54;98324.31;;;17.65;95.71
75650;BME280;64245;51.282;22.494;2023-07-02T19:25:21;98315.94;;;17.67;95.12
75650;BME280;64245;51.282;22.494;2023-07-02T19:27:47;98318.63;;;17.73;93.47
75650;BME280;64245;51.282;22.494;2023-07-02T19:30:13;98301.25;;;17.61;92.43
75650;BME280;64245;51.282;22.494;2023-07-02T19:32:39;98327.19;;;17.83;91.06
75650;BME280;64245;51.282;22.494;2023-07-02T19:35:06;98333.91;;;17.74;92.06
75650;BME280;64245;51.282;22.494;2023-07-02T19:37:32;98340.19;;;17.81;89.68
75650;BME280;64245;51.282;22.494;2023-07-02T19:39:58;98347.78;;;17.66;93.07
75650;BME280;64245;51.282;22.494;2023-07-02T19:42:24;98346.31;;;17.50;95.17
75650;BME280;64245;51.282;22.494;2023-07-02T19:44:54;98352.78;;;17.36;93.50
75650;BME280;64245;51.282;22.494;2023-07-02T19:47:21;98352.19;;;17.27;92.21
75650;BME280;64245;51.282;22.494;2023-07-02T19:49:47;98350.75;;;17.12;93.80
75650;BME280;64245;51.282;22.494;2023-07-02T19:52:14;98361.81;;;17.04;94.94
75650;BME280;64245;51.282;22.494;2023-07-02T19:54:40;98362.44;;;16.86;95.03
75650;BME280;64245;51.282;22.494;2023-07-02T19:57:08;98368.47;;;16.75;94.64
75650;BME280;64245;51.282;22.494;2023-07-02T19:59:40;98374.69;;;16.62;94.63
75650;BME280;64245;51.282;22.494;2023-07-02T20:02:06;98367.94;;;16.45;96.02
75650;BME280;64245;51.282;22.494;2023-07-02T20:04:31;98376.91;;;16.39;96.55
75650;BME280;64245;51.282;22.494;2023-07-02T20:06:57;98379.38;;;16.27;96.64
75650;BME280;64245;51.282;22.494;2023-07-02T20:09:23;98378.97;;;16.30;96.64
75650;BME280;64245;51.282;22.494;2023-07-02T20:11:48;98383.09;;;16.19;96.88
75650;BME280;64245;51.282;22.494;2023-07-02T20:14:14;98384.97;;;16.12;96.43
75650;BME280;64245;51.282;22.494;2023-07-02T20:16:40;98383.25;;;16.05;96.95
75650;BME280;64245;51.282;22.494;2023-07-02T20:19:06;98379.25;;;16.01;96.94
75650;BME280;64245;51.282;22.494;2023-07-02T20:21:35;98385.91;;;15.92;96.89
75650;BME280;64245;51.282;22.494;2023-07-02T20:24:03;98385.25;;;15.89;97.69
75650;BME280;64245;51.282;22.494;2023-07-02T20:26:29;98394.78;;;15.79;97.72
75650;BME280;64245;51.282;22.494;2023-07-02T20:28:59;98390.38;;;15.71;97.72
75650;BME280;64245;51.282;22.494;2023-07-02T20:31:25;98392.44;;;15.69;97.70
75650;BME280;64245;51.282;22.494;2023-07-02T20:33:52;98395.94;;;15.63;98.00
75650;BME280;64245;51.282;22.494;2023-07-02T20:36:19;98393.63;;;15.60;97.43
75650;BME280;64245;51.282;22.494;2023-07-02T20:42:28;98398.66;;;15.57;97.67
75650;BME280;64245;51.282;22.494;2023-07-02T20:44:54;98411.88;;;15.45;97.60
75650;BME280;64245;51.282;22.494;2023-07-02T20:47:23;98406.59;;;15.37;97.73
75650;BME280;64245;51.282;22.494;2023-07-02T20:49:49;98394.19;;;15.28;98.28
75650;BME280;64245;51.282;22.494;2023-07-02T20:52:16;98409.44;;;15.29;99.19
75650;BME280;64245;51.282;22.494;2023-07-02T20:54:42;98418.63;;;15.28;99.39
75650;BME280;64245;51.282;22.494;2023-07-02T20:57:10;98419.19;;;15.23;99.93
75650;BME280;64245;51.282;22.494;2023-07-02T20:59:36;98411.66;;;15.18;100.00
75650;BME280;64245;51.282;22.494;2023-07-02T21:02:02;98409.47;;;15.07;100.00
75650;BME280;64245;51.282;22.494;2023-07-02T21:04:28;98426.38;;;15.09;100.00
75650;BME280;64245;51.282;22.494;2023-07-02T21:06:53;98419.84;;;15.04;100.00
75650;BME280;64245;51.282;22.494;2023-07-02T21:09:19;98424.00;;;15.00;100.00
75650;BME280;64245;51.282;22.494;2023-07-02T21:11:48;98425.03;;;14.99;100.00
75650;BME280;64245;51.282;22.494;2023-07-02T21:14:14;98419.16;;;14.95;100.00
75650;BME280;64245;51.282;22.494;2023-07-02T21:16:39;98419.63;;;14.99;100.00
75650;BME280;64245;51.282;22.494;2023-07-02T21:19:05;98429.44;;;15.00;100.00
75650;BME280;64245;51.282;22.494;2023-07-02T21:21:31;98421.78;;;14.89;100.00
75650;BME280;64245;51.282;22.494;2023-07-02T21:23:56;98430.31;;;14.85;100.00
75650;BME280;64245;51.282;22.494;2023-07-02T21:26:22;98432.69;;;14.74;100.00
75650;BME280;64245;51.282;22.494;2023-07-02T21:28:48;98430.63;;;14.76;100.00
75650;BME280;64245;51.282;22.494;2023-07-02T21:31:14;98433.91;;;14.71;100.00
75650;BME280;64245;51.282;22.494;2023-07-02T21:33:40;98435.13;;;14.69;100.00
75650;BME280;64245;51.282;22.494;2023-07-02T21:36:06;98443.84;;;14.64;100.00
75650;BME280;64245;51.282;22.494;2023-07-02T21:38:37;98431.81;;;14.52;100.00
75650;BME280;64245;51.282;22.494;2023-07-02T21:41:08;98448.25;;;14.50;100.00
75650;BME280;64245;51.282;22.494;2023-07-02T21:43:34;98446.03;;;14.54;100.00
75650;BME280;64245;51.282;22.494;2023-07-02T21:46:05;98443.31;;;14.54;100.00
75650;BME280;64245;51.282;22.494;2023-07-02T21:48:31;98450.88;;;14.59;100.00
75650;BME280;64245;51.282;22.494;2023-07-02T21:50:57;98462.38;;;14.61;100.00
75650;BME280;64245;51.282;22.494;2023-07-02T21:53:23;98458.44;;;14.84;100.00
75650;BME280;64245;51.282;22.494;2023-07-02T21:55:49;98448.81;;;14.82;100.00
75650;BME280;64245;51.282;22.494;2023-07-02T21:58:16;98464.06;;;14.83;100.00
75650;BME280;64245;51.282;22.494;2023-07-02T22:00:42;98473.66;;;15.00;100.00
75650;BME280;64245;51.282;22.494;2023-07-02T22:03:08;98468.47;;;15.05;100.00
75650;BME280;64245;51.282;22.494;2023-07-02T22:05:34;98473.13;;;14.90;100.00
75650;BME280;64245;51.282;22.494;2023-07-02T22:08:00;98475.94;;;14.82;100.00
75650;BME280;64245;51.282;22.494;2023-07-02T22:10:27;98481.31;;;14.75;100.00
75650;BME280;64245;51.282;22.494;2023-07-02T22:13:06;98471.22;;;14.69;100.00
75650;BME280;64245;51.282;22.494;2023-07-02T22:15:32;98469.19;;;14.57;100.00
75650;BME280;64245;51.282;22.494;2023-07-02T22:17:58;98478.81;;;14.59;100.00
75650;BME280;64245;51.282;22.494;2023-07-02T22:20:32;98473.13;;;14.54;100.00
75650;BME280;64245;51.282;22.494;2023-07-02T22:22:58;98474.47;;;14.65;100.00
75650;BME280;64245;51.282;22.494;2023-07-02T22:25:24;98485.22;;;14.73;100.00
75650;BME280;64245;51.282;22.494;2023-07-02T22:27:51;98481.34;;;14.82;100.00
75650;BME280;64245;51.282;22.494;2023-07-02T22:30:17;98481.94;;;14.77;100.00
75650;BME280;64245;51.282;22.494;2023-07-02T22:32:43;98490.19;;;14.69;100.00
75650;BME280;64245;51.282;22.494;2023-07-02T22:35:08;98489.91;;;14.79;100.00
75650;BME280;64245;51.282;22.494;2023-07-02T22:37:36;98488.13;;;14.71;100.00
75650;BME280;64245;51.282;22.494;2023-07-02T22:40:03;98490.84;;;14.71;100.00
75650;BME280;64245;51.282;22.494;2023-07-02T22:42:35;98487.47;;;14.69;100.00
75650;BME280;64245;51.282;22.494;2023-07-02T22:45:05;98492.19;;;14.61;100.00
75650;BME280;64245;51.282;22.494;2023-07-02T22:47:31;98498.16;;;14.56;100.00
75650;BME280;64245;51.282;22.494;2023-07-02T22:49:56;98473.88;;;14.48;100.00
75650;BME280;64245;51.282;22.494;2023-07-02T22:52:22;98487.03;;;14.51;100.00
75650;BME280;64245;51.282;22.494;2023-07-02T22:54:54;98497.50;;;14.39;100.00
75650;BME280;64245;51.282;22.494;2023-07-02T22:57:20;98497.03;;;14.36;100.00
75650;BME280;64245;51.282;22.494;2023-07-02T22:59:46;98490.84;;;14.27;100.00
75650;BME280;64245;51.282;22.494;2023-07-02T23:02:12;98498.25;;;14.18;100.00
75650;BME280;64245;51.282;22.494;2023-07-02T23:04:37;98501.69;;;14.12;100.00
75650;BME280;64245;51.282;22.494;2023-07-02T23:07:03;98496.81;;;14.08;100.00
75650;BME280;64245;51.282;22.494;2023-07-02T23:09:29;98496.66;;;13.95;100.00
75650;BME280;64245;51.282;22.494;2023-07-02T23:11:55;98502.97;;;13.87;100.00
75650;BME280;64245;51.282;22.494;2023-07-02T23:14:20;98479.81;;;13.70;100.00
75650;BME280;64245;51.282;22.494;2023-07-02T23:16:46;98496.03;;;13.70;100.00
75650;BME280;64245;51.282;22.494;2023-07-02T23:19:12;98505.19;;;13.69;100.00
75650;BME280;64245;51.282;22.494;2023-07-02T23:21:38;98502.56;;;13.61;100.00
75650;BME280;64245;51.282;22.494;2023-07-02T23:24:12;98500.22;;;13.58;100.00
75650;BME280;64245;51.282;22.494;2023-07-02T23:26:40;98493.59;;;13.45;100.00
75650;BME280;64245;51.282;22.494;2023-07-02T23:29:05;98503.38;;;13.46;100.00
75650;BME280;64245;51.282;22.494;2023-07-02T23:31:32;98500.00;;;13.44;100.00
75650;BME280;64245;51.282;22.494;2023-07-02T23:33:59;98504.63;;;13.36;100.00
75650;BME280;64245;51.282;22.494;2023-07-02T23:36:25;98491.41;;;13.41;100.00
75650;BME280;64245;51.282;22.494;2023-07-02T23:38:52;98503.25;;;13.40;100.00
75650;BME280;64245;51.282;22.494;2023-07-02T23:41:20;98495.09;;;13.25;100.00
75650;BME280;64245;51.282;22.494;2023-07-02T23:43:46;98503.22;;;13.25;100.00
75650;BME280;64245;51.282;22.494;2023-07-02T23:46:12;98502.25;;;13.18;100.00
75650;BME280;64245;51.282;22.494;2023-07-02T23:48:38;98501.06;;;13.12;100.00
75650;BME280;64245;51.282;22.494;2023-07-02T23:51:04;98505.97;;;13.09;100.00
75650;BME280;64245;51.282;22.494;2023-07-02T23:53:30;98503.84;;;13.04;100.00
75650;BME280;64245;51.282;22.494;2023-07-02T23:55:56;98494.88;;;13.04;100.00
75650;BME280;64245;51.282;22.494;2023-07-02T23:58:21;98515.84;;;13.02;100.00
